Time;durP1;ratioP1;P1;durP2;ratioP2;P2;SDS_P1;SDS_P2;PMS_P1;PMS_P2;Temp;Humidity;BMP_temperature;BMP_pressure;BME280_temperature;BME280_humidity;BME280_pressure;Samples;Min_cycle;Max_cycle;Signal;HPM_P1;HPM_P2
2023/02/12 00:01:27;;;;;;;5.13;4.00;;;1.40;99.90;2.50;98124.00;;;;5069365;28;20968;-68
2023/02/12 00:04:16;;;;;;;7.43;4.27;;;1.30;99.90;2.10;98111.00;;;;5069773;28;20434;-68
2023/02/12 00:07:05;;;;;;;4.70;3.47;;;1.20;99.90;2.30;98109.00;;;;5068383;28;20438;-68
2023/02/12 00:09:54;;;;;;;5.80;4.90;;;1.20;99.90;2.40;98119.00;;;;5064468;28;20439;-68
2023/02/12 00:12:44;;;;;;;4.67;3.63;;;1.30;99.90;2.50;98128.00;;;;5069083;28;21050;-69
2023/02/12 00:15:33;;;;;;;5.73;3.50;;;1.20;99.90;2.40;98124.00;;;;5070363;28;20414;-69
2023/02/12 00:18:22;;;;;;;5.63;3.67;;;1.80;99.90;2.50;98129.00;;;;5068809;28;21177;-68
2023/02/12 00:21:12;;;;;;;4.53;3.30;;;1.20;99.90;2.30;98114.00;;;;5064856;28;20485;-68
2023/02/12 00:24:02;;;;;;;5.97;3.57;;;2.10;99.90;2.30;98134.00;;;;5067577;28;20445;-68
2023/02/12 00:26:50;;;;;;;5.97;3.23;;;2.30;99.90;2.40;98140.00;;;;5069263;28;20430;-68
2023/02/12 00:29:41;;;;;;;7.27;3.33;;;1.30;99.90;2.50;98132.00;;;;5062023;28;20441;-68
2023/02/12 00:32:30;;;;;;;4.77;3.30;;;1.20;99.90;2.40;98137.00;;;;5061088;28;20454;-68
2023/02/12 00:35:18;;;;;;;5.33;3.37;;;1.20;99.90;2.50;98142.00;;;;5072175;28;20429;-68
2023/02/12 00:38:07;;;;;;;5.50;3.27;;;1.30;99.90;2.50;98133.00;;;;5068371;28;20476;-68
2023/02/12 00:40:56;;;;;;;3.50;2.57;;;1.80;99.90;2.70;98138.00;;;;5068082;28;20501;-68
2023/02/12 00:43:46;;;;;;;4.87;1.70;;;2.20;99.90;2.80;98143.00;;;;5066213;28;20987;-68
2023/02/12 00:46:36;;;;;;;4.97;3.07;;;1.40;99.90;2.70;98140.00;;;;5069420;28;20457;-68
2023/02/12 00:49:25;;;;;;;8.03;2.67;;;2.30;99.90;2.60;98157.00;;;;5067927;28;20446;-68
2023/02/12 00:52:14;;;;;;;3.63;2.33;;;1.40;99.90;2.50;98149.00;;;;5066753;28;20528;-67
2023/02/12 00:55:03;;;;;;;2.00;1.57;;;1.60;99.90;2.60;98146.00;;;;5068808;28;20423;-69
2023/02/12 00:57:52;;;;;;;3.57;1.90;;;1.40;99.90;2.80;98153.00;;;;5067193;28;20437;-69
2023/02/12 01:00:41;;;;;;;3.90;2.77;;;2.50;99.90;2.60;98150.00;;;;5063083;28;20469;-70
2023/02/12 01:03:31;;;;;;;6.70;3.70;;;2.30;99.90;2.60;98164.00;;;;5066936;28;20438;-70
2023/02/12 01:06:20;;;;;;;5.60;4.37;;;1.50;99.90;2.70;98170.00;;;;5068240;28;20434;-69
2023/02/12 01:09:09;;;;;;;5.83;4.33;;;2.20;99.90;2.60;98173.00;;;;5067735;28;20439;-70
2023/02/12 01:11:58;;;;;;;6.33;4.23;;;1.40;99.90;2.60;98169.00;;;;5064008;28;20418;-70
2023/02/12 01:14:47;;;;;;;5.90;3.70;;;1.40;99.90;2.70;98155.00;;;;5061953;28;20430;-70
2023/02/12 01:17:35;;;;;;;3.90;3.53;;;1.40;99.90;2.70;98155.00;;;;5068806;28;20441;-70
2023/02/12 01:20:26;;;;;;;6.87;3.33;;;2.70;99.90;2.50;98145.00;;;;5068329;28;20470;-70
2023/02/12 01:23:15;;;;;;;7.00;4.50;;;1.40;99.90;2.40;98140.00;;;;5069254;28;20969;-70
2023/02/12 01:26:06;;;;;;;5.90;4.00;;;1.30;99.90;2.60;98138.00;;;;5067173;28;20431;-70
2023/02/12 01:29:00;;;;;;;3.30;3.00;;;1.30;99.90;2.50;98152.00;;;;5067646;28;20442;-69
2023/02/12 01:31:49;;;;;;;5.90;4.23;;;1.30;99.90;2.60;98158.00;;;;5068482;28;20439;-69
2023/02/12 01:34:38;;;;;;;7.53;4.50;;;1.30;99.90;2.50;98155.00;;;;5070051;28;20435;-70
2023/02/12 01:37:28;;;;;;;4.60;3.53;;;1.30;99.90;2.20;98150.00;;;;5066488;28;20431;-70
2023/02/12 01:40:18;;;;;;;15.40;3.70;;;1.80;99.90;2.30;98156.00;;;;5068764;28;20492;-69
2023/02/12 01:43:11;;;;;;;5.87;3.90;;;1.20;99.90;2.30;98149.00;;;;5067483;28;20459;-69
2023/02/12 01:46:00;;;;;;;6.47;3.97;;;1.40;99.90;2.30;98148.00;;;;5068440;28;20426;-68
2023/02/12 01:48:49;;;;;;;8.90;3.53;;;1.10;99.90;2.30;98154.00;;;;5067173;28;20441;-68
2023/02/12 01:51:39;;;;;;;5.50;3.63;;;1.10;99.90;2.30;98143.00;;;;5066823;28;20445;-69
2023/02/12 01:54:30;;;;;;;6.10;3.43;;;0.50;99.90;2.30;98134.00;;;;5066334;28;21010;-69
2023/02/12 01:57:19;;;;;;;5.97;2.57;;;1.10;99.90;2.30;98128.00;;;;5065162;28;20825;-69
2023/02/12 02:00:13;;;;;;;7.07;2.70;;;2.30;99.90;2.20;98123.00;;;;5063320;28;20445;-68
2023/02/12 02:03:02;;;;;;;11.37;4.17;;;1.00;99.90;1.70;98114.00;;;;5068108;28;20519;-68
2023/02/12 02:05:56;;;;;;;5.00;3.80;;;2.50;99.90;1.80;98118.00;;;;5064862;28;20421;-69
2023/02/12 02:08:46;;;;;;;4.70;3.70;;;1.50;99.90;1.80;98131.00;;;;5067213;28;20806;-68
2023/02/12 02:14:43;;;;;;;7.10;3.23;;;0.80;99.90;1.90;98150.00;;;;5058602;28;20422;-69
2023/02/12 02:17:47;;;;;;;7.40;4.20;;;1.50;99.90;1.90;98141.00;;;;5067572;28;20422;-69
2023/02/12 02:21:19;;;;;;;9.13;3.47;;;1.10;99.90;1.90;98135.00;;;;5068709;28;20814;-69
2023/02/12 02:24:52;;;;;;;4.83;2.90;;;0.70;99.90;1.80;98134.00;;;;5068150;28;20961;-68
2023/02/12 02:28:00;;;;;;;4.60;2.97;;;0.70;99.90;1.60;98141.00;;;;5057608;28;20457;-69
2023/02/12 02:30:55;;;;;;;8.77;3.90;;;0.60;99.90;1.60;98143.00;;;;5064971;28;20548;-69
2023/02/12 02:33:53;;;;;;;3.97;3.53;;;0.60;99.90;1.60;98148.00;;;;5067644;28;20438;-69
2023/02/12 02:36:47;;;;;;;5.93;3.53;;;1.60;99.90;1.60;98168.00;;;;5066386;28;20485;-70
2023/02/12 02:39:53;;;;;;;5.43;3.60;;;0.50;99.90;1.60;98162.00;;;;5067492;28;20788;-69
2023/02/12 02:42:48;;;;;;;8.90;3.33;;;0.40;99.90;1.20;98150.00;;;;5067110;28;20474;-68
2023/02/12 02:45:43;;;;;;;9.77;4.97;;;2.30;99.90;0.70;98143.00;;;;5065572;28;20423;-68
2023/02/12 02:48:37;;;;;;;4.07;2.00;;;0.30;99.90;0.50;98146.00;;;;5067342;28;20483;-72
2023/02/12 02:51:31;;;;;;;4.40;3.03;;;0.10;99.90;1.00;98151.00;;;;5064651;28;20879;-68
2023/02/12 02:54:26;;;;;;;3.03;2.27;;;0.60;99.90;1.30;98151.00;;;;5066131;28;20514;-68
2023/02/12 02:57:20;;;;;;;5.33;3.73;;;1.10;99.90;1.10;98158.00;;;;5067683;28;20445;-69
2023/02/12 03:00:15;;;;;;;5.97;4.13;;;0.70;99.90;1.40;98165.00;;;;5061501;28;20438;-68
2023/02/12 03:03:15;;;;;;;6.90;4.70;;;0.20;99.90;1.60;98167.00;;;;5068576;28;20548;-69
2023/02/12 03:06:10;;;;;;;3.57;2.77;;;0.30;99.90;1.50;98170.00;;;;5073625;28;20430;-68
2023/02/12 03:09:04;;;;;;;4.67;3.00;;;1.30;99.90;1.40;98165.00;;;;5065697;28;20422;-69
2023/02/12 03:11:56;;;;;;;4.27;3.87;;;0.30;99.90;1.60;98163.00;;;;5063056;28;20433;-69
2023/02/12 03:14:49;;;;;;;3.80;2.77;;;1.10;99.90;1.40;98166.00;;;;5062846;28;20422;-70
2023/02/12 03:17:42;;;;;;;3.77;3.00;;;0.40;99.90;1.20;98157.00;;;;5070184;28;20422;-69
2023/02/12 03:20:36;;;;;;;5.70;3.40;;;2.10;99.90;1.30;98154.00;;;;5071955;28;20425;-69
2023/02/12 03:23:32;;;;;;;5.97;3.40;;;0.20;99.90;1.30;98171.00;;;;5069983;28;20450;-68
2023/02/12 03:26:26;;;;;;;3.80;3.40;;;2.20;99.90;1.40;98168.00;;;;5071523;28;20983;-69
2023/02/12 03:29:15;;;;;;;5.30;3.40;;;2.10;99.90;1.30;98174.00;;;;5068625;28;20423;-69
2023/02/12 03:32:20;;;;;;;2.53;2.33;;;0.80;99.90;1.20;98168.00;;;;5070725;28;20427;-69
2023/02/12 03:35:15;;;;;;;3.80;2.57;;;1.50;99.90;1.20;98159.00;;;;5077089;28;20445;-69
2023/02/12 03:38:22;;;;;;;5.97;2.30;;;1.20;99.90;1.20;98170.00;;;;5070161;28;20446;-68
2023/02/12 03:41:18;;;;;;;4.60;2.90;;;1.30;99.90;1.20;98172.00;;;;5069846;28;20426;-70
2023/02/12 03:44:18;;;;;;;2.97;2.50;;;1.60;99.90;1.10;98183.00;;;;5069171;28;20457;-69
2023/02/12 03:47:24;;;;;;;4.90;2.73;;;0.90;99.90;1.00;98190.00;;;;5066294;28;20455;-69
2023/02/12 03:50:18;;;;;;;4.50;2.93;;;0.70;99.90;0.90;98193.00;;;;5068575;28;20422;-69
2023/02/12 03:53:07;;;;;;;9.00;5.87;;;-0.10;99.90;0.80;98200.00;;;;5069111;28;20465;-69
2023/02/12 03:56:02;;;;;;;13.57;9.07;;;1.00;99.90;0.60;98190.00;;;;5070222;28;20427;-69
2023/02/12 03:58:53;;;;;;;31.40;22.17;;;-0.20;99.90;0.70;98198.00;;;;5067350;28;20430;-69
2023/02/12 04:01:42;;;;;;;22.63;15.73;;;1.40;99.90;0.70;98201.00;;;;5068055;28;20466;-70
2023/02/12 04:04:31;;;;;;;16.23;10.77;;;0.70;99.90;0.40;98211.00;;;;5068781;28;20513;-69
2023/02/12 04:07:21;;;;;;;5.70;3.97;;;1.20;99.90;0.10;98207.00;;;;5070698;28;20455;-68
2023/02/12 04:10:11;;;;;;;5.23;3.27;;;-0.50;99.90;0.30;98214.00;;;;5069512;28;20435;-68
2023/02/12 04:13:12;;;;;;;8.57;5.17;;;-0.50;99.90;0.20;98223.00;;;;5066731;28;20404;-68
2023/02/12 04:16:17;;;;;;;11.03;5.20;;;1.00;99.90;0.50;98242.00;;;;5069451;28;20697;-68
2023/02/12 04:19:08;;;;;;;6.77;4.50;;;0.20;99.90;0.30;98228.00;;;;5067729;28;20437;-68
2023/02/12 04:22:14;;;;;;;7.30;4.33;;;-0.10;99.90;0.20;98221.00;;;;5070582;28;20467;-69
2023/02/12 04:25:18;;;;;;;4.30;3.40;;;-0.70;99.90;0.00;98216.00;;;;5071345;28;20437;-69
2023/02/12 04:28:13;;;;;;;4.10;3.47;;;1.50;99.90;-0.10;98217.00;;;;5068329;28;20968;-68
2023/02/12 04:31:13;;;;;;;10.10;4.53;;;-0.70;99.90;0.10;98216.00;;;;5064906;28;20818;-69
2023/02/12 04:34:10;;;;;;;5.30;3.90;;;-0.80;99.90;0.10;98222.00;;;;5067124;28;20446;-69
2023/02/12 04:37:05;;;;;;;2.63;2.30;;;0.30;99.90;-0.10;98223.00;;;;5072548;28;20423;-69
2023/02/12 04:39:55;;;;;;;1.70;1.60;;;1.40;99.90;-0.10;98212.00;;;;5070393;28;20434;-70
2023/02/12 04:42:44;;;;;;;6.33;1.70;;;-0.80;99.90;0.20;98214.00;;;;5070182;28;20488;-70
2023/02/12 04:45:36;;;;;;;1.53;1.43;;;-0.80;99.90;0.10;98227.00;;;;5064931;28;20995;-70
2023/02/12 04:48:26;;;;;;;2.40;2.20;;;1.30;99.90;0.00;98227.00;;;;5068127;28;20425;-69
2023/02/12 04:51:15;;;;;;;2.80;1.87;;;-0.80;99.90;0.00;98226.00;;;;5065954;28;20450;-68
2023/02/12 04:54:04;;;;;;;2.47;1.70;;;-0.20;99.90;-0.10;98229.00;;;;5064991;28;20442;-69
2023/02/12 04:56:53;;;;;;;3.00;2.47;;;-0.80;99.90;0.10;98236.00;;;;5069519;28;21080;-68
2023/02/12 04:59:42;;;;;;;1.83;1.73;;;-0.80;99.90;0.30;98243.00;;;;5068821;28;20430;-68
2023/02/12 05:02:31;;;;;;;6.13;2.57;;;1.00;99.90;0.20;98239.00;;;;5069196;28;20481;-68
2023/02/12 05:05:21;;;;;;;2.10;1.70;;;-0.80;99.90;0.40;98251.00;;;;5068787;28;20431;-68
2023/02/12 05:08:10;;;;;;;3.07;1.53;;;-0.80;99.90;0.00;98243.00;;;;5064642;28;20430;-67
2023/02/12 05:11:06;;;;;;;3.27;1.90;;;0.00;99.90;0.30;98255.00;;;;5067899;28;20410;-69
2023/02/12 05:13:54;;;;;;;2.10;1.83;;;-0.70;99.90;0.40;98259.00;;;;5068196;28;20460;-69
2023/02/12 05:16:43;;;;;;;1.97;1.83;;;-0.70;99.90;0.40;98265.00;;;;5068159;28;21029;-68
2023/02/12 05:19:32;;;;;;;2.57;2.30;;;1.00;99.90;0.00;98273.00;;;;5068095;28;20415;-68
2023/02/12 05:22:23;;;;;;;1.33;1.20;;;-0.60;99.90;0.30;98267.00;;;;5057964;28;21047;-69
2023/02/12 05:25:11;;;;;;;2.20;2.00;;;1.00;99.90;0.30;98280.00;;;;5067246;28;20449;-69
2023/02/12 05:28:00;;;;;;;5.33;2.63;;;0.00;99.90;0.50;98288.00;;;;5063608;28;20790;-69
2023/02/12 05:30:49;;;;;;;2.43;2.20;;;-0.60;99.90;0.50;98286.00;;;;5067379;28;20965;-69
2023/02/12 05:33:38;;;;;;;1.60;1.50;;;1.20;99.90;0.20;98280.00;;;;5056259;28;20449;-69
2023/02/12 05:36:27;;;;;;;2.90;1.80;;;1.50;99.90;0.20;98293.00;;;;5069866;28;20426;-70
2023/02/12 05:39:17;;;;;;;1.27;1.17;;;-0.70;99.90;-0.30;98284.00;;;;5069055;28;20430;-71
2023/02/12 05:42:07;;;;;;;2.93;2.00;;;-0.70;99.90;0.10;98298.00;;;;5069620;28;20439;-70
2023/02/12 05:44:55;;;;;;;2.70;2.50;;;-0.80;99.90;0.30;98300.00;;;;5068747;28;20422;-70
2023/02/12 05:47:44;;;;;;;8.30;3.30;;;-0.70;99.90;0.50;98323.00;;;;5068434;28;20430;-70
2023/02/12 05:50:33;;;;;;;1.50;1.40;;;-0.70;99.90;0.40;98326.00;;;;5063164;28;20508;-70
2023/02/12 05:53:22;;;;;;;3.13;2.47;;;0.90;99.90;0.20;98317.00;;;;5066263;28;20450;-70
2023/02/12 05:56:14;;;;;;;2.93;2.23;;;-0.70;99.90;0.50;98333.00;;;;5068674;28;20446;-68
2023/02/12 05:59:06;;;;;;;1.53;1.43;;;-0.60;99.90;0.40;98328.00;;;;5068501;28;20499;-68
2023/02/12 06:01:55;;;;;;;2.43;1.37;;;-0.60;99.90;0.60;98330.00;;;;5068848;28;20454;-68
2023/02/12 06:04:43;;;;;;;1.73;1.63;;;-0.60;99.90;0.60;98329.00;;;;5058020;28;20449;-68
2023/02/12 06:07:35;;;;;;;1.60;1.50;;;0.70;99.90;0.30;98330.00;;;;5066975;28;20429;-67
2023/02/12 06:10:23;;;;;;;1.33;1.20;;;-0.50;99.90;0.10;98334.00;;;;5068087;28;20450;-69
2023/02/12 06:13:14;;;;;;;2.47;2.27;;;-0.50;99.90;0.10;98324.00;;;;5069180;28;20473;-72
2023/02/12 06:16:03;;;;;;;1.80;1.60;;;-0.50;99.90;0.50;98343.00;;;;5058331;28;20426;-72
2023/02/12 06:18:53;;;;;;;1.90;1.37;;;-0.40;99.90;0.60;98349.00;;;;5067759;28;20437;-69
2023/02/12 06:21:42;;;;;;;1.60;1.50;;;-0.40;99.90;0.90;98355.00;;;;5068166;28;20441;-69
2023/02/12 06:24:31;;;;;;;1.80;1.50;;;-0.30;99.90;1.00;98356.00;;;;5068780;28;20470;-69
2023/02/12 06:27:20;;;;;;;1.90;1.70;;;-0.20;99.90;1.20;98354.00;;;;5056872;28;20817;-69
2023/02/12 06:30:12;;;;;;;2.33;2.00;;;0.70;99.90;1.40;98366.00;;;;5066314;28;20438;-70
2023/02/12 06:33:01;;;;;;;5.53;1.57;;;-0.10;99.90;1.60;98358.00;;;;5067287;28;20813;-69
2023/02/12 06:35:50;;;;;;;4.20;1.73;;;1.70;99.90;1.50;98365.00;;;;5072294;28;20430;-70
2023/02/12 06:38:39;;;;;;;2.73;2.23;;;1.20;99.90;1.50;98380.00;;;;5070513;28;20811;-69
2023/02/12 06:41:27;;;;;;;2.73;2.40;;;2.10;99.90;1.70;98374.00;;;;5071422;28;20434;-69
2023/02/12 06:44:16;;;;;;;1.77;1.67;;;0.30;99.90;1.80;98384.00;;;;5077049;28;20477;-69
2023/02/12 06:47:06;;;;;;;5.77;2.23;;;0.40;99.90;1.80;98386.00;;;;5082350;28;20413;-69
2023/02/12 06:49:55;;;;;;;2.23;2.03;;;2.20;99.90;1.80;98401.00;;;;5080229;28;20422;-69
2023/02/12 06:52:44;;;;;;;3.47;2.43;;;0.50;99.90;1.80;98396.00;;;;5070831;28;21012;-69
2023/02/12 06:55:34;;;;;;;7.30;4.83;;;2.00;99.90;1.90;98406.00;;;;5072554;28;20933;-69
2023/02/12 06:58:23;;;;;;;5.83;3.53;;;0.60;99.90;2.00;98423.00;;;;5063117;28;20414;-69
2023/02/12 07:01:16;;;;;;;2.67;2.47;;;1.70;99.90;2.00;98420.00;;;;5067916;28;20430;-69
2023/02/12 07:04:06;;;;;;;3.90;2.80;;;1.30;99.90;2.00;98427.00;;;;5069489;28;20458;-69
2023/02/12 07:06:55;;;;;;;4.23;2.60;;;2.30;99.90;2.10;98429.00;;;;5065536;28;20791;-69
2023/02/12 07:09:44;;;;;;;5.20;3.30;;;1.40;99.90;2.10;98438.00;;;;5080923;28;20425;-68
2023/02/12 07:12:34;;;;;;;8.23;3.23;;;2.40;99.90;2.10;98437.00;;;;5072258;28;20482;-69
2023/02/12 07:15:22;;;;;;;3.47;2.70;;;0.80;99.90;2.20;98438.00;;;;5077929;28;20425;-68
2023/02/12 07:18:11;;;;;;;5.47;3.57;;;2.10;99.90;2.30;98445.00;;;;5071780;28;20907;-69
2023/02/12 07:21:01;;;;;;;5.03;3.43;;;2.70;99.90;2.30;98437.00;;;;5073795;28;20430;-69
2023/02/12 07:23:52;;;;;;;3.00;2.67;;;1.10;99.90;2.40;98453.00;;;;5073598;28;20469;-68
2023/02/12 07:26:42;;;;;;;5.33;3.13;;;2.10;99.90;2.50;98457.00;;;;5069176;28;20791;-68
2023/02/12 07:29:31;;;;;;;4.30;2.60;;;1.30;99.90;2.40;98462.00;;;;5075139;28;20429;-68
2023/02/12 07:32:19;;;;;;;4.67;3.43;;;1.10;99.90;2.20;98453.00;;;;5075686;28;20965;-69
2023/02/12 07:35:09;;;;;;;16.73;10.27;;;1.40;99.90;2.30;98456.00;;;;5075109;28;20717;-69
2023/02/12 07:37:59;;;;;;;10.93;7.23;;;1.20;99.90;2.30;98454.00;;;;5077714;28;20425;-69
2023/02/12 07:40:48;;;;;;;7.17;4.13;;;2.20;99.90;2.60;98452.00;;;;5078148;28;20851;-68
2023/02/12 07:43:37;;;;;;;7.87;5.23;;;2.50;99.90;2.80;98451.00;;;;5081717;28;20471;-69
2023/02/12 07:46:29;;;;;;;10.93;7.00;;;2.00;99.90;3.00;98463.00;;;;5071078;28;20426;-68
2023/02/12 07:49:20;;;;;;;8.70;5.90;;;1.40;99.90;2.90;98458.00;;;;5065849;28;20939;-69
2023/02/12 07:52:09;;;;;;;6.20;4.27;;;1.90;99.90;3.00;98465.00;;;;5067203;28;20491;-68
2023/02/12 07:55:02;;;;;;;6.13;3.40;;;1.60;99.90;3.10;98466.00;;;;5074083;28;20425;-69
2023/02/12 07:57:51;;;;;;;4.13;3.37;;;2.20;99.90;3.40;98482.00;;;;5070808;28;20426;-69
2023/02/12 08:00:39;;;;;;;4.63;3.07;;;1.80;99.90;3.60;98485.00;;;;5071288;28;20442;-68
2023/02/12 08:03:29;;;;;;;4.27;2.70;;;2.20;99.90;3.50;98473.00;;;;5070742;28;20973;-68
2023/02/12 08:06:20;;;;;;;2.73;2.50;;;2.30;99.90;3.60;98468.00;;;;5069731;28;20430;-67
2023/02/12 08:09:13;;;;;;;4.37;2.97;;;2.20;99.90;3.60;98482.00;;;;5069711;28;20423;-69
2023/02/12 08:12:03;;;;;;;6.30;3.93;;;2.40;99.90;4.00;98494.00;;;;5065277;28;20469;-68
2023/02/12 08:14:53;;;;;;;2.80;2.60;;;2.40;99.90;4.30;98497.00;;;;5067368;28;20965;-69
2023/02/12 08:17:42;;;;;;;4.63;3.63;;;2.50;99.90;4.50;98494.00;;;;5070139;28;20807;-69
2023/02/12 08:20:33;;;;;;;7.90;4.63;;;2.70;99.90;4.60;98487.00;;;;5069860;28;20418;-69
2023/02/12 08:23:22;;;;;;;7.37;5.23;;;4.10;99.90;4.30;98488.00;;;;5065806;28;20525;-69
2023/02/12 08:26:13;;;;;;;9.50;5.40;;;2.90;99.90;4.50;98477.00;;;;5067909;28;20768;-69
2023/02/12 08:29:06;;;;;;;7.20;5.27;;;3.00;99.90;4.60;98484.00;;;;5066253;28;20434;-69
2023/02/12 08:31:57;;;;;;;8.90;5.47;;;3.10;99.90;4.30;98478.00;;;;5065157;28;20972;-70
2023/02/12 08:34:46;;;;;;;6.13;4.77;;;4.30;99.90;4.20;98470.00;;;;5075504;28;20443;-69
2023/02/12 08:37:35;;;;;;;6.67;5.00;;;3.10;99.90;4.40;98469.00;;;;5069421;28;20476;-70
2023/02/12 08:40:24;;;;;;;8.63;5.30;;;5.10;99.90;4.50;98471.00;;;;5070386;28;21115;-69
2023/02/12 08:43:12;;;;;;;5.57;4.53;;;4.70;99.90;4.70;98468.00;;;;5069161;28;20457;-70
2023/02/12 08:46:04;;;;;;;4.60;4.20;;;3.30;99.90;4.70;98474.00;;;;5070822;28;20544;-69
2023/02/12 08:48:58;;;;;;;4.20;3.80;;;3.30;99.90;4.60;98458.00;;;;5069262;28;20442;-69
2023/02/12 08:51:50;;;;;;;3.90;2.97;;;3.40;99.90;5.00;98463.00;;;;5070487;28;20427;-69
2023/02/12 08:54:39;;;;;;;2.40;1.63;;;3.50;99.90;4.80;98455.00;;;;5056507;28;20434;-69
2023/02/12 08:57:28;;;;;;;3.00;2.70;;;3.60;99.90;5.10;98462.00;;;;5068070;28;20943;-69
2023/02/12 09:00:18;;;;;;;2.80;2.43;;;3.70;99.90;5.40;98448.00;;;;5070367;28;20487;-67
2023/02/12 09:03:08;;;;;;;2.63;1.97;;;3.80;99.90;5.60;98453.00;;;;5067410;28;20527;-69
2023/02/12 09:05:57;;;;;;;4.03;1.80;;;4.00;99.90;5.90;98466.00;;;;5064350;28;20232;-68
2023/02/12 09:08:46;;;;;;;2.80;1.83;;;4.20;99.90;6.40;98474.00;;;;5067780;28;20192;-71
2023/02/12 09:11:36;;;;;;;3.57;2.80;;;4.40;99.90;6.50;98486.00;;;;5069789;28;20212;-71
2023/02/12 09:14:25;;;;;;;7.47;4.43;;;5.50;99.90;6.90;98475.00;;;;5073784;28;20196;-71
2023/02/12 09:17:14;;;;;;;6.03;4.23;;;5.00;99.90;7.20;98486.00;;;;5067179;28;20207;-71
2023/02/12 09:20:04;;;;;;;16.33;10.30;;;5.20;99.90;7.80;98483.00;;;;5074823;28;20208;-71
2023/02/12 09:22:53;;;;;;;9.37;6.00;;;5.60;99.90;8.30;98496.00;;;;5061141;28;20695;-73
2023/02/12 09:25:44;;;;;;;7.70;5.40;;;6.00;99.90;8.50;98495.00;;;;5068871;28;20219;-71
2023/02/12 09:28:34;;;;;;;7.60;4.87;;;6.30;99.90;8.80;98498.00;;;;5066545;28;20675;-72
2023/02/12 09:31:26;;;;;;;5.77;4.17;;;6.60;99.90;9.10;98503.00;;;;5066127;28;20245;-72
2023/02/12 09:34:15;;;;;;;3.93;3.60;;;6.90;99.90;9.50;98515.00;;;;5065448;28;20222;-71
2023/02/12 09:37:05;;;;;;;4.43;2.57;;;7.20;99.90;9.90;98521.00;;;;5063219;28;20570;-72
2023/02/12 09:39:54;;;;;;;3.37;2.83;;;7.50;99.90;10.40;98523.00;;;;5069630;28;20211;-71
2023/02/12 09:43:03;;;;;;;4.97;2.70;;;7.90;99.90;10.80;98519.00;;;;5069061;28;20224;-71
2023/02/12 09:46:01;;;;;;;5.63;2.10;;;8.30;99.90;11.10;98519.00;;;;5067200;28;20247;-71
2023/02/12 09:49:03;;;;;;;2.20;2.00;;;8.70;99.90;10.70;98526.00;;;;5069157;28;20215;-71
2023/02/12 09:51:54;;;;;;;2.27;1.90;;;8.90;99.90;11.10;98536.00;;;;5072464;28;20212;-71
2023/02/12 09:54:45;;;;;;;3.73;1.87;;;9.10;99.90;11.80;98527.00;;;;5072276;28;20203;-71
2023/02/12 09:57:36;;;;;;;1.53;1.43;;;9.40;99.90;12.30;98527.00;;;;5068871;28;20200;-71
2023/02/12 10:00:29;;;;;;;1.03;0.93;;;9.70;99.90;12.40;98518.00;;;;5073466;28;20231;-70
2023/02/12 10:03:19;;;;;;;0.80;0.80;;;10.10;99.90;12.50;98510.00;;;;5065832;28;20228;-72
2023/02/12 10:06:13;;;;;;;3.00;0.93;;;10.30;99.80;12.50;98519.00;;;;5069550;28;20228;-69
2023/02/12 10:09:19;;;;;;;1.53;1.37;;;10.70;98.90;13.20;98520.00;;;;5065061;28;20208;-69
2023/02/12 10:12:18;;;;;;;0.73;0.73;;;10.90;98.70;13.40;98530.00;;;;5066770;28;20683;-70
2023/02/12 10:15:33;;;;;;;1.50;1.00;;;11.20;97.60;13.40;98547.00;;;;5069210;28;20211;-70
2023/02/12 10:18:47;;;;;;;1.53;0.90;;;11.40;96.30;13.00;98556.00;;;;5067650;28;20671;-69
2023/02/12 10:21:51;;;;;;;0.97;0.97;;;11.30;96.00;12.40;98538.00;;;;5067465;28;20788;-71
2023/02/12 10:24:58;;;;;;;1.00;0.90;;;11.10;94.50;12.40;98543.00;;;;5067791;28;20231;-69
2023/02/12 10:27:52;;;;;;;1.58;1.10;;;10.90;94.90;12.20;98540.00;;;;5065300;28;20444;-68
2023/02/12 10:30:47;;;;;;;1.37;0.90;;;10.70;94.90;12.30;98545.00;;;;5060668;28;20275;-69
2023/02/12 10:33:40;;;;;;;0.77;0.77;;;10.70;95.10;12.20;98542.00;;;;5058714;28;20228;-69
2023/02/12 10:36:41;;;;;;;3.17;1.37;;;10.60;95.00;12.30;98546.00;;;;5065643;28;20556;-68
2023/02/12 10:39:36;;;;;;;5.43;2.47;;;10.50;95.10;12.20;98540.00;;;;5066728;28;20204;-68
2023/02/12 10:42:37;;;;;;;4.50;3.10;;;10.50;95.00;12.30;98548.00;;;;5070678;28;20220;-69
2023/02/12 10:45:32;;;;;;;1.83;1.43;;;10.40;94.90;12.30;98554.00;;;;5067322;28;20235;-69
2023/02/12 10:48:25;;;;;;;2.03;1.67;;;10.40;94.80;12.10;98551.00;;;;5065684;28;20200;-68
2023/02/12 10:51:43;;;;;;;2.70;1.40;;;10.40;94.50;12.20;98543.00;;;;5078338;28;20227;-69
2023/02/12 10:54:41;;;;;;;1.30;1.03;;;10.40;94.20;12.40;98537.00;;;;5066947;28;20282;-68
2023/02/12 10:57:31;;;;;;;3.30;1.37;;;10.40;94.50;12.70;98506.00;;;;5064633;28;20211;-68
2023/02/12 11:00:30;;;;;;;1.37;1.27;;;10.50;94.50;13.10;98538.00;;;;5075281;28;20301;-68
2023/02/12 11:03:28;;;;;;;1.37;1.03;;;10.70;94.30;12.80;98534.00;;;;5062721;28;20219;-68
2023/02/12 11:06:20;;;;;;;1.43;1.30;;;10.90;93.50;12.90;98535.00;;;;5059864;28;20229;-69
2023/02/12 11:09:29;;;;;;;1.10;1.00;;;11.00;92.80;12.90;98534.00;;;;5066698;28;20671;-70
2023/02/12 11:12:31;;;;;;;0.80;0.80;;;11.10;91.60;12.90;98540.00;;;;5064705;28;20215;-70
2023/02/12 11:15:24;;;;;;;0.70;0.70;;;11.30;91.40;13.60;98542.00;;;;5070422;28;20230;-69
2023/02/12 11:18:24;;;;;;;0.53;0.40;;;11.50;91.30;13.30;98530.00;;;;5063811;28;20219;-69
2023/02/12 11:21:13;;;;;;;0.57;0.50;;;11.60;90.40;14.30;98529.00;;;;5065815;28;20196;-69
2023/02/12 11:24:29;;;;;;;1.93;0.53;;;11.90;90.80;15.30;98522.00;;;;5064949;28;20230;-68
2023/02/12 11:27:24;;;;;;;1.67;1.20;;;12.40;90.60;15.60;98538.00;;;;5068139;28;20196;-69
2023/02/12 11:30:20;;;;;;;1.07;0.93;;;13.00;89.40;15.40;98531.00;;;;5073065;28;20556;-68
2023/02/12 11:33:19;;;;;;;3.87;3.57;;;13.30;87.00;14.30;98537.00;;;;5068108;28;20232;-69
2023/02/12 11:36:19;;;;;;;3.03;2.30;;;13.30;83.00;14.70;98538.00;;;;5084443;28;20196;-67
2023/02/12 11:39:21;;;;;;;0.70;0.70;;;13.20;84.50;14.40;98536.00;;;;5070127;28;20204;-68
2023/02/12 11:42:18;;;;;;;0.37;0.37;;;13.00;83.40;14.20;98549.00;;;;5066106;28;20199;-69
2023/02/12 11:45:17;;;;;;;2.67;0.67;;;12.90;82.90;14.60;98535.00;;;;5068104;28;20208;-68
2023/02/12 11:48:17;;;;;;;1.87;0.60;;;12.80;82.70;13.70;98538.00;;;;5073637;28;20572;-66
2023/02/12 11:51:09;;;;;;;0.47;0.40;;;12.60;79.80;12.70;98520.00;;;;5073670;28;20687;-69
2023/02/12 11:54:05;;;;;;;1.67;0.50;;;12.10;79.20;13.00;98540.00;;;;5077555;28;20219;-68
2023/02/12 11:56:55;;;;;;;0.40;0.40;;;11.90;80.10;13.40;98521.00;;;;5065458;28;20212;-69
2023/02/12 11:59:46;;;;;;;1.37;1.00;;;11.80;80.70;13.80;98508.00;;;;5068693;28;20215;-68
2023/02/12 12:02:40;;;;;;;0.80;0.70;;;11.80;81.50;14.10;98517.00;;;;5070706;28;20301;-68
2023/02/12 12:05:36;;;;;;;0.40;0.40;;;12.00;81.80;13.20;98519.00;;;;5072033;28;20227;-69
2023/02/12 12:08:30;;;;;;;0.53;0.53;;;12.00;81.10;13.30;98492.00;;;;5068608;28;20200;-70
2023/02/12 12:11:25;;;;;;;2.23;0.43;;;12.00;78.90;13.30;98506.00;;;;5077748;28;20196;-73
2023/02/12 12:14:22;;;;;;;0.50;0.43;;;12.00;79.40;13.90;98523.00;;;;5072839;28;20712;-73
2023/02/12 12:20:28;;;;;;;0.70;0.63;;;12.00;78.50;14.20;98479.00;;;;5071825;28;20208;-68
2023/02/12 12:23:22;;;;;;;1.40;0.90;;;12.30;78.70;15.80;98453.00;;;;5074928;28;20220;-68
2023/02/12 12:26:19;;;;;;;0.60;0.60;;;12.90;79.20;17.00;98475.00;;;;5066851;28;20220;-68
2023/02/12 12:29:20;;;;;;;0.50;0.50;;;13.70;77.40;17.00;98484.00;;;;5076243;28;20200;-67
2023/02/12 12:32:11;;;;;;;;;;;14.30;75.00;16.50;98503.00;;;;5079484;28;20036;-67
2023/02/12 12:35:00;;;;;;;;;;;14.60;72.00;15.80;98503.00;;;;5079997;28;19920;-68
2023/02/12 12:37:53;;;;;;;;;;;14.60;70.90;14.20;98496.00;;;;5077775;28;19935;-70
2023/02/12 12:40:50;;;;;;;;;;;14.10;69.50;13.80;98472.00;;;;5078588;28;20124;-69
2023/02/12 12:43:46;;;;;;;;;;;13.50;69.90;14.20;98492.00;;;;5079352;28;19927;-69
2023/02/12 12:46:47;;;;;;;;;;;13.30;70.10;14.90;98443.00;;;;5081211;28;19930;-72
2023/02/12 12:49:49;;;;;;;;;;;13.20;71.50;14.00;98430.00;;;;5070456;28;19931;-68
2023/02/12 12:52:52;;;;;;;;;;;13.20;69.40;15.40;98428.00;;;;5068076;28;19931;-68
2023/02/12 12:55:54;;;;;;;;;;;13.50;69.90;17.90;98427.00;;;;5066654;28;19936;-68
2023/02/12 12:58:56;;;;;;;0.53;0.43;;;;;17.40;98425.00;;;;5064130;28;20412;-68
2023/02/12 13:02:17;;;;;;;0.40;0.30;;;;;18.60;98432.00;;;;5063338;28;20183;-66
2023/02/12 13:05:31;;;;;;;0.97;0.57;;;;;17.80;98428.00;;;;5060303;28;20213;-71
2023/02/12 13:08:36;;;;;;;1.17;0.43;;;;;19.00;98433.00;;;;5068556;28;20200;-67
2023/02/12 13:11:35;;;;;;;0.73;0.40;;;;;20.20;98434.00;;;;5065554;28;20195;-68